To NAV CANADA Home Page Login to a new session Search on AWWS site Feedback and Comments Disclaimer Vers la page française équivalente Tips FAQ What's new on the site To the Forecasts and Observations / NOTAM section To "File a Flight Plan" website Publications and other links Update of the User's profile FIC Telephone Numbers My Weather Data Folder Route Weather Data Regional Weather Data Local Weather Data To the Forecasts and Observations / NOTAM section
Request Generated 08/22/2017 at 03:29:26 UTC . Weather information available at that time is displayed.

METAR/TAF

CHURCHILL/MB    (show WxCam)

SPECI CYYQ 220307Z 06014KT 10SM SCT005 OVC012 09/07 A2996 RMK ST3SC5
SLP147=
METAR CYYQ 220300Z 04014KT 2 1/2SM BR BKN005 OVC010 09/08 A2996 RMK
ST5SC3 SLP147=
METAR CYYQ 220200Z 04016KT 2SM BR OVC005 09/09 A2993 RMK ST8 SLP138=
METAR CYYQ 220100Z 04017KT 2SM BR OVC003 09/09 A2991 RMK ST8 SLP131=

TAF AMD CYYQ 220321Z 2203/2224 06015KT 21/2SM BR BKN005 TEMPO
2203/2206 P6SM NSW SCT005 OVC012
FM220600 04012KT P6SM FEW012 SCT030 TEMPO 2206/2208 BKN012
FM220800 01010KT P6SM FEW015
BECMG 2220/2222 34010KT
RMK NXT FCST BY 220600Z=
Your time UTC time
Weather data provided by Environment Canada and NAV CANADA